createdAt,value
2019-06-26T00:00:48.008Z,81.60
2019-06-26T00:03:14.251Z,81.60
2019-06-26T00:05:40.559Z,81.60
2019-06-26T00:08:07.017Z,81.60
2019-06-26T00:10:33.470Z,81.50
2019-06-26T00:12:59.723Z,82.20
2019-06-26T00:15:26.010Z,82.10
2019-06-26T00:17:52.251Z,82.00
2019-06-26T00:20:18.515Z,81.80
2019-06-26T00:22:44.761Z,81.20
2019-06-26T00:25:11.035Z,82.00
2019-06-26T00:27:37.461Z,82.10
2019-06-26T00:30:03.748Z,82.70
2019-06-26T00:32:29.998Z,82.50
2019-06-26T00:34:56.312Z,82.80
2019-06-26T00:37:22.624Z,82.80
2019-06-26T00:39:51.427Z,82.60
2019-06-26T00:42:17.815Z,82.70
2019-06-26T00:44:44.087Z,83.10
2019-06-26T00:47:10.322Z,83.00
2019-06-26T00:49:36.590Z,83.10
2019-06-26T00:52:02.882Z,83.40
2019-06-26T00:54:29.197Z,83.50
2019-06-26T00:56:55.479Z,83.20
2019-06-26T00:59:21.866Z,83.00
2019-06-26T01:01:48.189Z,83.90
2019-06-26T01:04:14.689Z,83.60
2019-06-26T01:06:40.955Z,83.30
2019-06-26T01:09:07.207Z,83.40
2019-06-26T01:11:33.494Z,83.50
2019-06-26T01:13:59.740Z,83.60
2019-06-26T01:16:26.029Z,83.70
2019-06-26T01:18:52.296Z,83.70
2019-06-26T01:21:18.547Z,83.60
2019-06-26T01:23:44.817Z,83.40
2019-06-26T01:26:11.077Z,83.60
2019-06-26T01:28:37.392Z,84.30
2019-06-26T01:31:05.063Z,84.30
2019-06-26T01:33:31.360Z,84.80
2019-06-26T01:35:57.704Z,84.70
2019-06-26T01:38:23.954Z,84.90
2019-06-26T01:40:50.252Z,85.00
2019-06-26T01:43:16.492Z,85.40
2019-06-26T01:45:42.774Z,86.20
2019-06-26T01:48:09.026Z,84.80
2019-06-26T01:50:35.280Z,84.70
2019-06-26T01:53:01.530Z,85.80
2019-06-26T01:55:27.798Z,85.70
2019-06-26T01:57:54.074Z,86.00
2019-06-26T02:00:20.327Z,86.00
2019-06-26T02:02:46.800Z,86.30
2019-06-26T02:05:13.098Z,86.20
2019-06-26T02:07:39.353Z,85.70
2019-06-26T02:10:05.626Z,86.20
2019-06-26T02:12:31.883Z,86.20
2019-06-26T02:17:43.523Z,85.90
2019-06-26T02:20:09.782Z,85.90
2019-06-26T02:22:36.047Z,85.90
2019-06-26T02:25:02.387Z,85.90
2019-06-26T02:27:30.946Z,86.00
2019-06-26T02:29:57.196Z,86.90
2019-06-26T02:32:23.581Z,86.90
2019-06-26T02:34:49.879Z,87.20
2019-06-26T02:37:16.132Z,87.10
2019-06-26T02:39:42.402Z,87.30
2019-06-26T02:42:08.639Z,88.00
2019-06-26T02:44:52.079Z,88.80
2019-06-26T02:47:18.195Z,88.90
2019-06-26T02:49:30.974Z,88.60
2019-06-26T02:51:57.236Z,89.10
2019-06-26T02:54:23.564Z,89.30
2019-06-26T02:56:49.880Z,89.30
2019-06-26T02:59:16.139Z,89.20
2019-06-26T03:01:42.378Z,89.20
2019-06-26T03:04:08.700Z,89.40
2019-06-26T03:06:35.032Z,89.60
2019-06-26T03:09:01.338Z,89.90
2019-06-26T03:11:27.598Z,90.00
2019-06-26T03:13:53.853Z,90.10
2019-06-26T03:16:20.094Z,90.20
2019-06-26T03:18:46.361Z,90.30
2019-06-26T03:21:12.606Z,90.10
2019-06-26T03:23:38.890Z,90.00
2019-06-26T03:26:05.139Z,90.10
2019-06-26T03:28:31.415Z,89.80
2019-06-26T03:30:57.652Z,89.90
2019-06-26T03:33:23.926Z,90.20
2019-06-26T03:35:50.253Z,90.00
2019-06-26T03:38:16.497Z,90.10
2019-06-26T03:40:42.762Z,90.20
2019-06-26T03:43:09.012Z,90.20
2019-06-26T03:45:35.597Z,90.00
2019-06-26T03:48:01.855Z,89.80
2019-06-26T03:50:28.114Z,89.70
2019-06-26T03:52:54.386Z,90.00
2019-06-26T03:55:20.657Z,89.80
2019-06-26T03:57:46.914Z,89.80
2019-06-26T04:00:13.220Z,89.80
2019-06-26T04:02:39.524Z,90.10
2019-06-26T04:05:05.830Z,90.20
2019-06-26T04:07:32.119Z,90.10
2019-06-26T04:09:58.395Z,90.40
2019-06-26T04:12:24.694Z,90.60
2019-06-26T04:14:50.946Z,90.10
2019-06-26T04:17:17.218Z,90.10
2019-06-26T04:19:43.446Z,90.00
2019-06-26T04:22:09.743Z,90.00
2019-06-26T04:24:35.991Z,90.20
2019-06-26T04:27:02.469Z,90.50
2019-06-26T04:29:28.805Z,90.30
2019-06-26T04:31:55.094Z,90.40
2019-06-26T04:34:21.337Z,90.20
2019-06-26T04:36:47.618Z,90.10
2019-06-26T04:39:13.862Z,89.70
2019-06-26T04:41:40.144Z,90.00
2019-06-26T04:44:06.392Z,90.20
2019-06-26T04:46:32.647Z,90.30
2019-06-26T04:48:58.896Z,91.30
2019-06-26T04:51:25.198Z,89.30
2019-06-26T04:53:51.434Z,88.10
2019-06-26T04:56:17.735Z,87.20
2019-06-26T04:58:44.042Z,87.50
2019-06-26T05:01:10.321Z,86.80
2019-06-26T05:03:36.568Z,86.30
2019-06-26T05:06:02.819Z,86.00
2019-06-26T05:08:29.104Z,85.30
2019-06-26T05:10:55.359Z,85.30
2019-06-26T05:13:21.927Z,86.00
2019-06-26T05:15:48.209Z,84.60
2019-06-26T05:18:14.495Z,84.40
2019-06-26T05:20:40.744Z,84.80
2019-06-26T05:23:07.004Z,85.10
2019-06-26T05:25:33.252Z,84.80
2019-06-26T05:27:59.566Z,83.00
2019-06-26T05:30:25.802Z,83.70
2019-06-26T05:32:52.230Z,82.60
2019-06-26T05:35:18.675Z,81.30
2019-06-26T05:37:44.950Z,80.40
2019-06-26T05:40:11.205Z,80.30
2019-06-26T05:42:37.470Z,80.10
2019-06-26T05:45:03.728Z,79.80
2019-06-26T05:47:30.064Z,79.60
2019-06-26T05:49:56.360Z,78.80
2019-06-26T05:52:22.663Z,77.50
2019-06-26T05:54:48.922Z,77.30
2019-06-26T05:57:15.175Z,76.70
2019-06-26T05:59:41.462Z,77.00
2019-06-26T06:02:07.709Z,77.30
2019-06-26T06:04:34.140Z,76.90
2019-06-26T06:07:00.384Z,75.80
2019-06-26T06:09:26.696Z,74.60
2019-06-26T06:11:52.932Z,72.80
2019-06-26T06:14:19.216Z,72.30
2019-06-26T06:16:47.749Z,71.00
2019-06-26T06:19:13.468Z,70.50
2019-06-26T06:21:39.706Z,68.00
2019-06-26T06:24:06.007Z,68.00
2019-06-26T06:26:32.238Z,66.70
2019-06-26T06:28:58.527Z,66.50
2019-06-26T06:31:24.783Z,65.60
2019-06-26T06:33:51.077Z,65.00
2019-06-26T06:36:17.306Z,64.90
2019-06-26T06:38:43.583Z,63.80
2019-06-26T06:41:09.854Z,62.10
2019-06-26T06:43:36.118Z,62.00
2019-06-26T06:46:02.464Z,61.50
2019-06-26T06:48:28.736Z,61.40
2019-06-26T06:50:55.073Z,61.10
2019-06-26T06:53:21.367Z,60.50
2019-06-26T06:55:47.627Z,59.90
2019-06-26T06:58:13.890Z,60.10
2019-06-26T07:00:40.146Z,59.50
2019-06-26T07:03:06.414Z,59.40
2019-06-26T07:05:32.697Z,58.70
2019-06-26T07:07:58.957Z,58.00
2019-06-26T07:10:25.235Z,57.90
2019-06-26T07:12:51.567Z,58.00
2019-06-26T07:15:17.880Z,57.90
2019-06-26T07:17:44.137Z,57.00
2019-06-26T07:20:10.417Z,57.20
2019-06-26T07:22:36.674Z,56.90
2019-06-26T07:25:02.943Z,57.30
2019-06-26T07:27:29.207Z,56.20
2019-06-26T07:29:55.484Z,55.40
2019-06-26T07:32:21.822Z,54.80
2019-06-26T07:34:48.086Z,55.50
2019-06-26T07:37:14.414Z,55.20
2019-06-26T07:39:40.677Z,54.10
2019-06-26T07:42:06.964Z,53.80
2019-06-26T07:44:33.211Z,52.80
2019-06-26T07:46:59.514Z,54.30
2019-06-26T07:49:25.759Z,52.80
2019-06-26T07:51:52.055Z,52.50
2019-06-26T07:54:18.383Z,51.90
2019-06-26T07:56:44.740Z,51.90
2019-06-26T07:59:11.103Z,51.10
2019-06-26T08:01:37.430Z,50.40
2019-06-26T08:04:04.042Z,50.70
2019-06-26T08:06:31.218Z,50.70
2019-06-26T08:08:57.466Z,49.90
2019-06-26T08:11:25.796Z,50.10
2019-06-26T08:13:52.099Z,51.40
2019-06-26T08:16:18.424Z,49.90
2019-06-26T08:18:44.728Z,49.10
2019-06-26T08:21:12.896Z,48.40
2019-06-26T08:23:39.001Z,48.60
2019-06-26T08:26:05.241Z,48.50
2019-06-26T08:28:31.511Z,50.50
2019-06-26T08:30:58.019Z,49.20
2019-06-26T08:33:24.292Z,49.80
2019-06-26T08:35:50.530Z,48.90
2019-06-26T08:38:16.804Z,48.70
2019-06-26T08:40:43.082Z,49.50
2019-06-26T08:43:09.433Z,48.00
2019-06-26T08:45:35.674Z,48.70
2019-06-26T08:48:16.910Z,47.40
2019-06-26T08:50:29.947Z,48.00
2019-06-26T08:52:56.439Z,48.10
2019-06-26T08:55:22.713Z,48.20
2019-06-26T08:57:51.450Z,48.60
2019-06-26T09:00:17.856Z,48.70
2019-06-26T09:02:44.455Z,48.20
2019-06-26T09:05:10.690Z,47.00
2019-06-26T09:07:36.972Z,47.20
2019-06-26T09:10:03.239Z,47.30
2019-06-26T09:12:29.478Z,46.40
2019-06-26T09:14:55.743Z,45.90
2019-06-26T09:17:21.996Z,46.00
2019-06-26T09:19:48.299Z,46.20
2019-06-26T09:22:14.604Z,45.40
2019-06-26T09:24:40.870Z,44.90
2019-06-26T09:27:07.121Z,45.40
2019-06-26T09:29:33.382Z,46.50
2019-06-26T09:31:59.707Z,47.10
2019-06-26T09:34:25.988Z,45.80
2019-06-26T09:36:52.230Z,46.20
2019-06-26T09:39:20.720Z,45.50
2019-06-26T09:41:46.991Z,45.20
2019-06-26T09:44:13.260Z,45.10
2019-06-26T09:46:39.504Z,42.80
2019-06-26T09:49:05.841Z,42.70
2019-06-26T09:51:32.084Z,43.50
2019-06-26T09:53:58.855Z,43.70
2019-06-26T09:56:25.132Z,43.60
2019-06-26T09:58:51.372Z,43.70
2019-06-26T10:01:17.672Z,41.90
2019-06-26T10:03:45.275Z,42.30
2019-06-26T10:06:11.878Z,41.20
2019-06-26T10:08:38.331Z,41.20
2019-06-26T10:11:04.702Z,42.30
2019-06-26T10:13:30.965Z,41.10
2019-06-26T10:16:00.445Z,40.00
2019-06-26T10:18:25.209Z,40.90
2019-06-26T10:20:51.576Z,40.90
2019-06-26T10:23:18.073Z,41.00
2019-06-26T10:25:44.408Z,41.50
2019-06-26T10:28:10.635Z,39.30
2019-06-26T10:30:36.943Z,39.90
2019-06-26T10:33:03.330Z,39.50
2019-06-26T10:35:29.781Z,38.90
2019-06-26T10:37:56.051Z,39.60
2019-06-26T10:40:22.287Z,41.20
2019-06-26T10:42:48.707Z,40.40
2019-06-26T10:45:14.958Z,38.80
2019-06-26T10:47:41.267Z,39.50
2019-06-26T10:50:07.524Z,40.20
2019-06-26T10:52:33.824Z,36.90
2019-06-26T10:55:00.146Z,38.90
2019-06-26T10:57:26.430Z,39.90
2019-06-26T10:59:55.629Z,41.10
2019-06-26T11:02:20.699Z,38.90
2019-06-26T11:04:46.957Z,38.60
2019-06-26T11:07:13.256Z,38.30
2019-06-26T11:09:39.572Z,37.50
2019-06-26T11:12:05.903Z,38.30
2019-06-26T11:14:32.204Z,37.40
2019-06-26T11:16:58.546Z,38.10
2019-06-26T11:19:24.835Z,37.50
2019-06-26T11:21:51.086Z,37.90
2019-06-26T11:24:17.357Z,36.80
2019-06-26T11:26:43.657Z,37.20
2019-06-26T11:29:09.954Z,38.90
2019-06-26T11:31:36.195Z,39.10
2019-06-26T11:34:02.642Z,36.40
2019-06-26T11:36:28.948Z,37.10
2019-06-26T11:38:55.284Z,38.10
2019-06-26T11:41:21.538Z,35.40
2019-06-26T11:43:48.002Z,37.50
2019-06-26T11:46:14.296Z,37.60
2019-06-26T11:48:40.624Z,37.30
2019-06-26T11:51:06.887Z,35.60
2019-06-26T11:53:33.250Z,36.30
2019-06-26T11:55:59.488Z,37.10
2019-06-26T11:58:25.753Z,36.30
2019-06-26T12:00:52.008Z,35.00
2019-06-26T12:03:18.309Z,35.80
2019-06-26T12:05:46.619Z,36.90
2019-06-26T12:08:12.886Z,37.50
2019-06-26T12:10:39.175Z,37.00
2019-06-26T12:13:05.447Z,36.50
2019-06-26T12:15:31.756Z,36.90
2019-06-26T12:17:58.020Z,36.40
2019-06-26T12:20:24.403Z,35.90
2019-06-26T12:22:50.635Z,36.10
2019-06-26T12:25:19.224Z,36.20
2019-06-26T12:27:45.466Z,36.40
2019-06-26T12:30:11.737Z,36.10
2019-06-26T12:32:42.107Z,37.30
2019-06-26T12:35:06.002Z,37.50
2019-06-26T12:37:37.687Z,36.80
2019-06-26T12:40:00.931Z,36.40
2019-06-26T12:42:27.282Z,34.50
2019-06-26T12:44:53.656Z,36.60
2019-06-26T12:47:19.906Z,36.60
2019-06-26T12:49:46.218Z,36.10
2019-06-26T12:52:12.474Z,36.30
2019-06-26T12:54:38.783Z,38.20
2019-06-26T12:57:05.054Z,36.90
2019-06-26T12:59:31.387Z,36.00
2019-06-26T13:01:57.681Z,36.20
2019-06-26T13:04:26.180Z,35.40
2019-06-26T13:06:52.515Z,35.40
2019-06-26T13:09:18.813Z,35.70
2019-06-26T13:11:45.121Z,35.10
2019-06-26T13:14:11.394Z,35.30
2019-06-26T13:16:37.693Z,35.10
2019-06-26T13:19:04.002Z,35.40
2019-06-26T13:21:30.247Z,35.10
2019-06-26T13:23:56.624Z,35.00
2019-06-26T13:26:22.909Z,33.80
2019-06-26T13:28:49.194Z,34.10
2019-06-26T13:31:15.491Z,35.80
2019-06-26T13:33:41.766Z,33.50
2019-06-26T13:36:08.108Z,33.40
2019-06-26T13:38:34.362Z,34.70
2019-06-26T13:41:00.868Z,36.90
2019-06-26T13:43:27.222Z,35.40
2019-06-26T13:45:53.516Z,35.90
2019-06-26T13:48:19.761Z,36.70
2019-06-26T13:50:46.084Z,35.80
2019-06-26T13:53:12.413Z,35.60
2019-06-26T13:55:38.698Z,34.80
2019-06-26T13:58:04.958Z,37.60
2019-06-26T14:00:31.211Z,35.30
2019-06-26T14:02:57.533Z,35.20
2019-06-26T14:05:23.851Z,36.10
2019-06-26T14:07:50.122Z,35.30
2019-06-26T14:10:16.374Z,35.40
2019-06-26T14:12:42.639Z,37.10
2019-06-26T14:15:08.894Z,37.30
2019-06-26T14:17:35.162Z,35.80
2019-06-26T14:20:01.537Z,36.30
2019-06-26T14:22:27.964Z,35.30
2019-06-26T14:24:54.421Z,35.60
2019-06-26T14:27:20.774Z,34.70
2019-06-26T14:29:47.033Z,35.80
2019-06-26T14:32:13.343Z,35.90
2019-06-26T14:34:39.589Z,35.40
2019-06-26T14:37:05.875Z,35.70
2019-06-26T14:39:32.146Z,36.60
2019-06-26T14:41:58.435Z,36.90
2019-06-26T14:44:24.704Z,37.60
2019-06-26T14:46:50.957Z,36.30
2019-06-26T14:49:17.243Z,36.40
2019-06-26T14:51:47.484Z,36.30
2019-06-26T14:54:11.671Z,38.70
2019-06-26T14:56:37.954Z,36.30
2019-06-26T14:59:04.242Z,37.80
2019-06-26T15:01:30.487Z,36.60
2019-06-26T15:03:56.759Z,36.00
2019-06-26T15:06:23.055Z,36.10
2019-06-26T15:08:49.338Z,37.20
2019-06-26T15:11:15.835Z,37.70
2019-06-26T15:13:42.411Z,38.30
2019-06-26T15:16:08.710Z,39.20
2019-06-26T15:18:34.985Z,38.90
2019-06-26T15:21:01.262Z,39.30
2019-06-26T15:23:27.578Z,39.20
2019-06-26T15:25:53.968Z,40.10
2019-06-26T15:28:20.265Z,38.30
2019-06-26T15:30:46.557Z,40.60
2019-06-26T15:33:12.872Z,40.70
2019-06-26T15:35:39.281Z,40.70
2019-06-26T15:38:05.596Z,40.80
2019-06-26T15:40:31.855Z,40.20
2019-06-26T15:42:58.114Z,39.80
2019-06-26T15:45:24.414Z,40.20
2019-06-26T15:47:50.696Z,40.20
2019-06-26T15:50:17.195Z,40.20
2019-06-26T15:52:43.439Z,40.40
2019-06-26T15:55:09.755Z,39.90
2019-06-26T15:57:35.990Z,40.40
2019-06-26T16:00:02.588Z,41.80
2019-06-26T16:02:30.035Z,42.10
2019-06-26T16:04:56.357Z,42.90
2019-06-26T16:07:22.663Z,41.90
2019-06-26T16:09:48.957Z,42.40
2019-06-26T16:12:15.210Z,42.40
2019-06-26T16:14:41.500Z,43.40
2019-06-26T16:17:07.882Z,42.90
2019-06-26T16:19:34.216Z,42.50
2019-06-26T16:22:00.504Z,42.80
2019-06-26T16:24:30.061Z,42.80
2019-06-26T16:26:54.751Z,42.40
2019-06-26T16:29:21.036Z,42.80
2019-06-26T16:31:47.297Z,43.70
2019-06-26T16:34:13.591Z,44.50
2019-06-26T16:36:39.927Z,44.50
2019-06-26T16:39:06.184Z,44.30
2019-06-26T16:41:32.468Z,44.50
2019-06-26T16:43:58.729Z,45.10
2019-06-26T16:46:25.027Z,45.60
2019-06-26T16:48:51.480Z,45.00
2019-06-26T16:51:17.781Z,44.90
2019-06-26T16:53:44.036Z,44.90
2019-06-26T16:56:10.323Z,44.20
2019-06-26T16:58:36.615Z,44.20
2019-06-26T17:01:02.895Z,44.50
2019-06-26T17:03:29.169Z,44.60
2019-06-26T17:05:55.500Z,44.10
2019-06-26T17:08:21.760Z,43.90
2019-06-26T17:10:48.109Z,43.60
2019-06-26T17:13:14.369Z,43.20
2019-06-26T17:15:40.670Z,43.40
2019-06-26T17:18:06.949Z,43.90
2019-06-26T17:20:33.190Z,44.70
2019-06-26T17:23:05.576Z,44.50
2019-06-26T17:25:27.544Z,45.50
2019-06-26T17:27:53.986Z,44.90
2019-06-26T17:30:20.327Z,45.20
2019-06-26T17:32:46.600Z,45.30
2019-06-26T17:35:12.847Z,46.10
2019-06-26T17:37:39.160Z,45.60
2019-06-26T17:40:05.467Z,46.40
2019-06-26T17:42:31.755Z,46.50
2019-06-26T17:44:58.004Z,46.00
2019-06-26T17:47:24.271Z,46.40
2019-06-26T17:49:50.524Z,46.10
2019-06-26T17:52:17.282Z,46.80
2019-06-26T17:54:43.561Z,46.70
2019-06-26T17:57:09.898Z,47.20
2019-06-26T17:59:36.169Z,48.20
2019-06-26T18:02:02.578Z,48.30
2019-06-26T18:04:29.063Z,48.50
2019-06-26T18:06:55.418Z,49.00
2019-06-26T18:09:21.704Z,49.20
2019-06-26T18:11:47.976Z,49.60
2019-06-26T18:14:14.232Z,49.50
2019-06-26T18:16:40.498Z,49.20
2019-06-26T18:19:06.759Z,49.70
2019-06-26T18:21:33.030Z,49.50
2019-06-26T18:23:59.354Z,50.10
2019-06-26T18:26:25.675Z,49.40
2019-06-26T18:28:51.976Z,50.00
2019-06-26T18:31:18.231Z,49.90
2019-06-26T18:33:44.535Z,50.00
2019-06-26T18:36:10.814Z,50.00
2019-06-26T18:38:37.122Z,51.50
2019-06-26T18:41:03.395Z,50.80
2019-06-26T18:43:29.684Z,50.50
2019-06-26T18:45:55.946Z,50.20
2019-06-26T18:48:24.881Z,50.30
2019-06-26T18:50:50.284Z,50.10
2019-06-26T18:53:16.663Z,50.40
2019-06-26T18:55:45.294Z,50.90
2019-06-26T18:58:11.575Z,51.00
2019-06-26T19:00:37.817Z,51.20
2019-06-26T19:03:04.437Z,51.50
2019-06-26T19:05:30.696Z,52.30
2019-06-26T19:07:59.367Z,52.20
2019-06-26T19:10:25.705Z,52.10
2019-06-26T19:12:51.999Z,52.30
2019-06-26T19:15:18.332Z,52.40
2019-06-26T19:17:44.587Z,52.70
2019-06-26T19:20:10.911Z,52.90
2019-06-26T19:22:37.204Z,54.10
2019-06-26T19:25:03.476Z,53.20
2019-06-26T19:27:29.746Z,54.10
2019-06-26T19:29:56.037Z,53.90
2019-06-26T19:32:22.291Z,54.10
2019-06-26T19:34:48.590Z,54.70
2019-06-26T19:37:14.869Z,54.60
2019-06-26T19:39:41.156Z,55.00
2019-06-26T19:42:07.400Z,55.70
2019-06-26T19:44:33.696Z,55.30
2019-06-26T19:46:59.953Z,55.40
2019-06-26T19:49:26.221Z,55.40
2019-06-26T19:51:52.515Z,55.50
2019-06-26T19:54:27.135Z,56.70
2019-06-26T19:56:46.817Z,55.70
2019-06-26T19:59:13.103Z,55.80
2019-06-26T20:01:39.429Z,55.90
2019-06-26T20:04:05.793Z,55.70
2019-06-26T20:06:32.141Z,56.00
2019-06-26T20:08:58.406Z,55.70
2019-06-26T20:11:24.710Z,56.00
2019-06-26T20:13:50.978Z,56.00
2019-06-26T20:16:17.287Z,56.50
2019-06-26T20:18:43.569Z,56.40
2019-06-26T20:21:09.840Z,56.50
2019-06-26T20:23:36.111Z,57.00
2019-06-26T20:26:02.516Z,56.90
2019-06-26T20:28:28.806Z,57.50
2019-06-26T20:30:57.098Z,57.50
2019-06-26T20:33:23.382Z,56.70
2019-06-26T20:35:49.666Z,56.50
2019-06-26T20:38:15.908Z,56.80
2019-06-26T20:40:45.593Z,57.00
2019-06-26T20:43:10.220Z,57.40
2019-06-26T20:45:36.489Z,58.00
2019-06-26T20:48:02.772Z,58.00
2019-06-26T20:50:29.283Z,58.40
2019-06-26T20:52:55.837Z,58.00
2019-06-26T20:55:22.279Z,57.90
2019-06-26T20:57:48.615Z,58.40
2019-06-26T21:00:14.896Z,58.90
2019-06-26T21:02:41.175Z,58.70
2019-06-26T21:05:07.486Z,58.90
2019-06-26T21:07:33.803Z,58.80
2019-06-26T21:10:00.043Z,59.00
2019-06-26T21:12:26.352Z,59.40
2019-06-26T21:14:52.622Z,59.70
2019-06-26T21:17:18.925Z,59.60
2019-06-26T21:19:45.197Z,59.70
2019-06-26T21:22:11.480Z,60.20
2019-06-26T21:24:37.730Z,60.90
2019-06-26T21:27:04.017Z,60.60
2019-06-26T21:29:30.289Z,61.40
2019-06-26T21:31:56.569Z,61.30
2019-06-26T21:34:22.829Z,61.70
2019-06-26T21:36:49.166Z,61.90
2019-06-26T21:39:15.484Z,61.80
2019-06-26T21:41:41.759Z,62.20
2019-06-26T21:44:08.057Z,62.10
2019-06-26T21:46:34.387Z,62.70
2019-06-26T21:49:01.225Z,62.70
2019-06-26T21:51:27.532Z,62.60
2019-06-26T21:53:53.819Z,62.70
2019-06-26T21:56:20.064Z,62.90
2019-06-26T21:58:48.427Z,63.00
2019-06-26T22:01:14.695Z,62.80
2019-06-26T22:03:40.978Z,63.00
2019-06-26T22:06:07.254Z,62.80
2019-06-26T22:08:33.569Z,62.70
2019-06-26T22:10:59.850Z,63.00
2019-06-26T22:13:26.140Z,63.20
2019-06-26T22:15:52.394Z,62.90
2019-06-26T22:18:18.671Z,63.10
2019-06-26T22:20:44.919Z,63.50
2019-06-26T22:23:11.407Z,63.10
2019-06-26T22:25:50.380Z,63.40
2019-06-26T22:28:05.717Z,63.20
2019-06-26T22:30:32.081Z,63.40
2019-06-26T22:32:58.371Z,63.70
2019-06-26T22:35:24.634Z,63.90
2019-06-26T22:37:50.962Z,64.30
2019-06-26T22:40:17.415Z,64.60
2019-06-26T22:42:43.771Z,64.80
2019-06-26T22:45:10.030Z,64.90
2019-06-26T22:47:36.268Z,64.70
2019-06-26T22:50:02.562Z,64.50
2019-06-26T22:52:28.805Z,64.60
2019-06-26T22:54:55.100Z,64.70
2019-06-26T22:57:21.351Z,64.70
2019-06-26T22:59:47.795Z,64.90
2019-06-26T23:02:14.056Z,65.00
2019-06-26T23:04:40.356Z,64.90
2019-06-26T23:07:06.629Z,64.70
2019-06-26T23:09:32.957Z,64.70
2019-06-26T23:11:59.229Z,64.50
2019-06-26T23:14:25.522Z,65.00
2019-06-26T23:16:51.793Z,65.00
2019-06-26T23:19:18.110Z,64.80
2019-06-26T23:21:44.365Z,64.50
2019-06-26T23:24:10.660Z,65.10
2019-06-26T23:26:36.917Z,65.80
2019-06-26T23:29:03.199Z,66.00
2019-06-26T23:31:29.597Z,66.00
2019-06-26T23:33:55.856Z,65.80
2019-06-26T23:36:22.143Z,65.70
2019-06-26T23:38:48.395Z,65.00
2019-06-26T23:41:17.886Z,65.90
2019-06-26T23:43:42.649Z,66.20
2019-06-26T23:46:08.925Z,66.50
2019-06-26T23:48:35.182Z,66.00
2019-06-26T23:51:01.687Z,66.10
2019-06-26T23:53:28.216Z,66.30
2019-06-26T23:55:54.508Z,66.60
2019-06-26T23:58:20.756Z,66.80
